createdAt,value
2023-01-10T00:00:13.903Z,98554.33
2023-01-10T00:02:41.057Z,98560.57
2023-01-10T00:05:08.467Z,98565.00
2023-01-10T00:07:36.739Z,98570.77
2023-01-10T00:10:04.219Z,98577.39
2023-01-10T00:12:49.853Z,98582.90
2023-01-10T00:15:18.894Z,98584.63
2023-01-10T00:17:45.860Z,98585.44
2023-01-10T00:20:13.093Z,98590.35
2023-01-10T00:22:40.108Z,98592.95
2023-01-10T00:25:07.793Z,98598.02
2023-01-10T00:27:35.849Z,98605.21
2023-01-10T00:30:13.972Z,98600.45
2023-01-10T00:32:42.396Z,98605.09
2023-01-10T00:35:10.978Z,98615.96
2023-01-10T00:37:38.976Z,98610.59
2023-01-10T00:40:10.715Z,98607.92
2023-01-10T00:42:56.319Z,98609.44
2023-01-10T00:45:25.090Z,98604.90
2023-01-10T00:47:52.504Z,98617.89
2023-01-10T00:50:19.385Z,98613.39
2023-01-10T00:52:46.345Z,98608.18
2023-01-10T00:55:13.172Z,98609.12
2023-01-10T00:57:40.103Z,98607.27
2023-01-10T01:00:09.401Z,98613.29
2023-01-10T01:02:36.548Z,98606.97
2023-01-10T01:05:04.352Z,98612.33
2023-01-10T01:07:31.269Z,98609.85
2023-01-10T01:10:16.998Z,98614.28
2023-01-10T01:12:44.058Z,98618.35
2023-01-10T01:15:12.332Z,98616.99
2023-01-10T01:17:39.973Z,98615.91
2023-01-10T01:20:07.965Z,98619.44
2023-01-10T01:22:34.806Z,98614.46
2023-01-10T01:25:02.056Z,98612.14
2023-01-10T01:27:28.962Z,98614.65
2023-01-10T01:29:55.887Z,98624.89
2023-01-10T01:32:23.275Z,98610.59
2023-01-10T01:34:50.429Z,98609.17
2023-01-10T01:37:19.773Z,98618.98
2023-01-10T01:39:49.521Z,98608.54
2023-01-10T01:42:31.220Z,98606.17
2023-01-10T01:45:19.618Z,98604.51
2023-01-10T01:48:00.288Z,98604.21
2023-01-10T01:50:36.436Z,98600.44
2023-01-10T01:53:05.994Z,98588.02
2023-01-10T01:55:32.829Z,98595.48
2023-01-10T01:58:01.243Z,98592.25
2023-01-10T02:00:28.072Z,98592.14
2023-01-10T02:03:02.584Z,98596.57
2023-01-10T02:05:30.774Z,98599.79
2023-01-10T02:07:58.308Z,98605.31
2023-01-10T02:10:36.818Z,98606.03
2023-01-10T02:13:05.323Z,98605.71
2023-01-10T02:15:32.378Z,98601.45
2023-01-10T02:17:59.292Z,98606.29
2023-01-10T02:20:26.808Z,98604.14
2023-01-10T02:23:21.354Z,98602.14
2023-01-10T02:26:27.132Z,98602.35
2023-01-10T02:29:42.484Z,98600.11
2023-01-10T02:32:42.065Z,98592.04
2023-01-10T02:35:16.729Z,98592.55
2023-01-10T02:38:16.064Z,98598.99
2023-01-10T02:41:06.535Z,98604.67
2023-01-10T02:43:47.273Z,98613.41
2023-01-10T02:46:24.679Z,98606.30
2023-01-10T02:48:55.445Z,98618.38
2023-01-10T02:51:29.658Z,98615.38
2023-01-10T02:54:03.925Z,98621.34
2023-01-10T02:56:44.716Z,98625.30
2023-01-10T02:59:30.096Z,98629.80
2023-01-10T03:02:25.912Z,98637.44
2023-01-10T03:05:03.605Z,98643.15
2023-01-10T03:07:44.350Z,98652.23
2023-01-10T03:10:18.389Z,98660.84
2023-01-10T03:12:52.816Z,98657.55
2023-01-10T03:15:20.174Z,98664.66
2023-01-10T03:17:50.289Z,98675.02
2023-01-10T03:20:18.048Z,98672.95
2023-01-10T03:22:44.872Z,98676.00
2023-01-10T03:25:12.294Z,98675.77
2023-01-10T03:27:45.276Z,98679.75
2023-01-10T03:30:28.545Z,98663.06
2023-01-10T03:32:57.187Z,98672.11
2023-01-10T03:35:29.723Z,98672.80
2023-01-10T03:37:59.136Z,98674.73
2023-01-10T03:40:33.962Z,98675.91
2023-01-10T03:43:21.794Z,98680.05
2023-01-10T03:45:54.154Z,98674.67
2023-01-10T03:48:21.191Z,98690.09
2023-01-10T03:50:48.072Z,98688.20
2023-01-10T03:53:15.403Z,98671.98
2023-01-10T03:55:42.483Z,98681.33
2023-01-10T03:58:09.390Z,98686.63
2023-01-10T04:00:36.292Z,98692.56
2023-01-10T04:03:03.415Z,98695.05
2023-01-10T04:05:30.301Z,98696.56
2023-01-10T04:07:57.254Z,98687.13
2023-01-10T04:10:27.284Z,98697.98
2023-01-10T04:12:54.277Z,98697.32
2023-01-10T04:15:21.195Z,98709.02
2023-01-10T04:17:49.042Z,98706.95
2023-01-10T04:20:16.151Z,98711.05
2023-01-10T04:22:44.985Z,98720.20
2023-01-10T04:25:12.008Z,98717.97
2023-01-10T04:27:38.995Z,98721.74
2023-01-10T04:30:07.146Z,98716.02
2023-01-10T04:32:34.035Z,98734.18
2023-01-10T04:35:01.033Z,98731.31
2023-01-10T04:37:27.843Z,98725.50
2023-01-10T04:39:54.823Z,98735.64
2023-01-10T04:42:21.769Z,98727.29
2023-01-10T04:44:48.734Z,98727.83
2023-01-10T04:47:16.075Z,98747.95
2023-01-10T04:49:42.973Z,98742.58
2023-01-10T04:52:10.793Z,98743.27
2023-01-10T04:54:37.680Z,98738.70
2023-01-10T04:57:05.893Z,98742.77
2023-01-10T04:59:33.559Z,98738.83
2023-01-10T05:02:00.561Z,98750.15
2023-01-10T05:04:27.853Z,98742.30
2023-01-10T05:06:54.761Z,98747.86
2023-01-10T05:09:21.638Z,98751.75
2023-01-10T05:11:48.600Z,98756.55
2023-01-10T05:14:15.467Z,98760.33
2023-01-10T05:16:42.410Z,98773.56
2023-01-10T05:19:09.721Z,98764.66
2023-01-10T05:21:36.673Z,98774.55
2023-01-10T05:24:03.602Z,98777.59
2023-01-10T05:26:30.523Z,98785.00
2023-01-10T05:28:57.572Z,98789.37
2023-01-10T05:31:24.520Z,98799.18
2023-01-10T05:33:52.036Z,98804.58
2023-01-10T05:36:19.474Z,98805.31
2023-01-10T05:38:46.635Z,98792.63
2023-01-10T05:41:13.557Z,98802.78
2023-01-10T05:43:40.439Z,98801.29
2023-01-10T05:46:07.509Z,98797.70
2023-01-10T05:48:34.482Z,98794.94
2023-01-10T05:51:01.379Z,98816.09
2023-01-10T05:53:28.462Z,98827.81
2023-01-10T05:56:00.271Z,98822.56
2023-01-10T05:58:27.528Z,98831.70
2023-01-10T06:00:55.064Z,98829.30
2023-01-10T06:03:22.207Z,98826.45
2023-01-10T06:05:49.377Z,98837.90
2023-01-10T06:08:16.881Z,98841.09
2023-01-10T06:10:44.059Z,98839.69
2023-01-10T06:13:12.350Z,98836.48
2023-01-10T06:15:39.478Z,98834.45
2023-01-10T06:18:06.927Z,98841.49
2023-01-10T06:20:34.208Z,98845.25
2023-01-10T06:23:04.786Z,98843.29
2023-01-10T06:25:33.691Z,98850.68
2023-01-10T06:28:00.783Z,98843.83
2023-01-10T06:30:27.917Z,98857.90
2023-01-10T06:32:54.887Z,98859.11
2023-01-10T06:35:21.902Z,98860.80
2023-01-10T06:37:48.858Z,98863.42
2023-01-10T06:40:16.550Z,98869.11
2023-01-10T06:42:43.448Z,98870.88
2023-01-10T06:45:11.157Z,98871.23
2023-01-10T06:47:38.689Z,98878.52
2023-01-10T06:50:07.052Z,98874.27
2023-01-10T06:52:34.123Z,98875.94
2023-01-10T06:55:01.260Z,98873.81
2023-01-10T06:57:31.008Z,98880.48
2023-01-10T06:59:58.004Z,98862.89
2023-01-10T07:02:25.096Z,98879.90
2023-01-10T07:04:52.197Z,98883.08
2023-01-10T07:07:19.253Z,98884.38
2023-01-10T07:09:46.553Z,98879.42
2023-01-10T07:12:13.644Z,98879.14
2023-01-10T07:14:40.643Z,98894.79
2023-01-10T07:17:07.606Z,98890.61
2023-01-10T07:19:34.560Z,98900.52
2023-01-10T07:22:01.455Z,98898.88
2023-01-10T07:24:28.479Z,98889.59
2023-01-10T07:26:56.526Z,98886.82
2023-01-10T07:29:23.437Z,98895.14
2023-01-10T07:31:51.866Z,98894.23
2023-01-10T07:34:18.950Z,98896.83
2023-01-10T07:36:45.970Z,98909.20
2023-01-10T07:39:12.960Z,98910.35
2023-01-10T07:41:39.952Z,98899.50
2023-01-10T07:44:06.963Z,98910.36
2023-01-10T07:46:33.966Z,98909.88
2023-01-10T07:49:00.889Z,98915.34
2023-01-10T07:51:27.766Z,98911.91
2023-01-10T07:53:54.670Z,98915.16
2023-01-10T07:56:21.851Z,98909.54
2023-01-10T07:58:48.705Z,98902.83
2023-01-10T08:01:15.953Z,98914.48
2023-01-10T08:03:43.210Z,98904.86
2023-01-10T08:06:11.334Z,98905.64
2023-01-10T08:08:38.556Z,98914.45
2023-01-10T08:11:05.660Z,98906.80
2023-01-10T08:13:33.737Z,98905.95
2023-01-10T08:16:05.063Z,98897.83
2023-01-10T08:18:32.419Z,98888.73
2023-01-10T08:20:59.604Z,98894.15
2023-01-10T08:23:27.121Z,98897.71
2023-01-10T08:25:54.570Z,98896.81
2023-01-10T08:28:21.645Z,98897.35
2023-01-10T08:30:50.496Z,98904.41
2023-01-10T08:33:17.732Z,98910.45
2023-01-10T08:35:44.829Z,98900.97
2023-01-10T08:38:11.865Z,98902.11
2023-01-10T08:40:38.847Z,98900.68
2023-01-10T08:43:07.425Z,98902.17
2023-01-10T08:45:34.627Z,98908.55
2023-01-10T08:48:02.130Z,98910.69
2023-01-10T08:50:29.254Z,98911.12
2023-01-10T08:53:00.257Z,98906.63
2023-01-10T08:55:28.243Z,98912.95
2023-01-10T08:57:55.520Z,98911.21
2023-01-10T09:00:23.330Z,98910.25
2023-01-10T09:02:50.444Z,98910.30
2023-01-10T09:05:26.766Z,98905.08
2023-01-10T09:08:01.356Z,98903.66
2023-01-10T09:10:29.210Z,98910.38
2023-01-10T09:12:59.993Z,98906.86
2023-01-10T09:15:32.371Z,98900.34
2023-01-10T09:18:05.102Z,98915.95
2023-01-10T09:20:33.056Z,98909.02
2023-01-10T09:23:01.910Z,98914.95
2023-01-10T09:25:28.875Z,98903.61
2023-01-10T09:27:59.706Z,98903.91
2023-01-10T09:30:27.459Z,98898.85
2023-01-10T09:32:54.932Z,98894.02
2023-01-10T09:35:22.790Z,98876.73
2023-01-10T09:37:50.687Z,98883.27
2023-01-10T09:40:19.980Z,98883.62
2023-01-10T09:43:17.032Z,98898.77
2023-01-10T09:45:56.927Z,98902.38
2023-01-10T09:48:42.833Z,98897.31
2023-01-10T09:51:20.151Z,98902.33
2023-01-10T09:53:47.077Z,98897.61
2023-01-10T09:56:15.148Z,98902.59
2023-01-10T09:58:42.106Z,98903.67
2023-01-10T10:01:38.738Z,98911.94
2023-01-10T10:04:12.119Z,98903.48
2023-01-10T10:06:39.282Z,98900.45
2023-01-10T10:09:06.235Z,98898.63
2023-01-10T10:12:01.844Z,98903.13
2023-01-10T10:14:45.285Z,98906.69
2023-01-10T10:17:28.464Z,98909.23
2023-01-10T10:20:20.103Z,98897.38
2023-01-10T10:23:04.780Z,98912.28
2023-01-10T10:25:34.575Z,98918.58
2023-01-10T10:28:37.354Z,98916.60
2023-01-10T10:31:15.081Z,98912.47
2023-01-10T10:33:51.374Z,98917.67
2023-01-10T10:36:29.609Z,98913.44
2023-01-10T10:38:58.333Z,98908.23
2023-01-10T10:41:28.262Z,98912.67
2023-01-10T10:43:55.187Z,98907.81
2023-01-10T10:46:22.408Z,98912.40
2023-01-10T10:48:50.986Z,98917.73
2023-01-10T10:51:27.712Z,98926.42
2023-01-10T10:53:55.885Z,98926.11
2023-01-10T10:56:23.784Z,98924.22
2023-01-10T10:58:53.915Z,98926.01
2023-01-10T11:01:21.166Z,98928.13
2023-01-10T11:03:54.339Z,98930.20
2023-01-10T11:06:21.262Z,98925.06
2023-01-10T11:08:49.454Z,98926.38
2023-01-10T11:11:34.242Z,98923.42
2023-01-10T11:14:06.180Z,98922.47
2023-01-10T11:16:41.303Z,98914.23
2023-01-10T11:19:27.160Z,98924.83
2023-01-10T11:22:01.092Z,98932.27
2023-01-10T11:24:33.152Z,98933.39
2023-01-10T11:27:03.161Z,98937.55
2023-01-10T11:29:43.723Z,98936.64
2023-01-10T11:32:15.222Z,98943.50
2023-01-10T11:34:48.313Z,98952.55
2023-01-10T11:37:32.960Z,98949.97
2023-01-10T11:40:26.873Z,98947.36
2023-01-10T11:42:55.169Z,98953.92
2023-01-10T11:45:23.865Z,98953.04
2023-01-10T11:47:57.098Z,98955.11
2023-01-10T11:50:26.063Z,98964.58
2023-01-10T11:52:53.395Z,98965.28
2023-01-10T11:55:21.736Z,98974.31
2023-01-10T11:58:15.339Z,98974.52
2023-01-10T12:00:49.146Z,98974.88
2023-01-10T12:03:25.013Z,98980.60
2023-01-10T12:05:53.454Z,98969.91
2023-01-10T12:08:31.512Z,98981.95
2023-01-10T12:11:01.964Z,98980.09
2023-01-10T12:13:30.852Z,98984.50
2023-01-10T12:16:17.617Z,98986.23
2023-01-10T12:18:45.184Z,98992.73
2023-01-10T12:21:13.457Z,98988.80
2023-01-10T12:23:41.841Z,98993.64
2023-01-10T12:26:12.269Z,99002.19
2023-01-10T12:28:58.881Z,99003.86
2023-01-10T12:31:26.007Z,99005.13
2023-01-10T12:33:59.121Z,99006.63
2023-01-10T12:36:46.729Z,98997.52
2023-01-10T12:39:18.279Z,98998.13
2023-01-10T12:42:26.286Z,99004.06
2023-01-10T12:45:05.477Z,99009.09
2023-01-10T12:47:34.287Z,99020.60
2023-01-10T12:50:01.497Z,99029.58
2023-01-10T12:52:47.599Z,99029.33
2023-01-10T12:55:21.177Z,99021.23
2023-01-10T12:57:51.863Z,99029.27
2023-01-10T13:00:48.231Z,99035.27
2023-01-10T13:03:19.980Z,99051.29
2023-01-10T13:06:06.065Z,99057.27
2023-01-10T13:08:34.367Z,99056.33
2023-01-10T13:11:01.741Z,99053.38
2023-01-10T13:13:31.812Z,99051.87
2023-01-10T13:16:17.408Z,99056.85
2023-01-10T13:19:09.645Z,99053.55
2023-01-10T13:21:40.471Z,99057.07
2023-01-10T13:24:20.937Z,99063.80
2023-01-10T13:26:52.826Z,99069.53
2023-01-10T13:29:26.966Z,99075.23
2023-01-10T13:32:00.620Z,99076.89
2023-01-10T13:34:34.719Z,99074.68
2023-01-10T13:37:05.104Z,99077.08
2023-01-10T13:39:35.983Z,99076.30
2023-01-10T13:42:21.635Z,99078.00
2023-01-10T13:45:01.400Z,99083.38
2023-01-10T13:47:40.706Z,99084.11
2023-01-10T13:50:23.518Z,99087.86
2023-01-10T13:52:53.978Z,99087.20
2023-01-10T13:55:34.312Z,99090.81
2023-01-10T13:58:03.007Z,99077.23
2023-01-10T14:00:52.017Z,99092.91
2023-01-10T14:03:41.094Z,99093.70
2023-01-10T14:06:30.973Z,99094.71
2023-01-10T14:08:59.923Z,99099.02
2023-01-10T14:11:48.062Z,99113.41
2023-01-10T14:14:30.171Z,99109.52
2023-01-10T14:16:59.073Z,99117.61
2023-01-10T14:19:31.191Z,99114.67
2023-01-10T14:22:00.798Z,99121.89
2023-01-10T14:24:43.894Z,99112.60
2023-01-10T14:27:15.205Z,99119.20
2023-01-10T14:29:47.791Z,99123.38
2023-01-10T14:32:21.010Z,99117.31
2023-01-10T14:34:49.461Z,99119.05
2023-01-10T14:37:24.000Z,99117.63
2023-01-10T14:39:53.278Z,99122.35
2023-01-10T14:42:20.242Z,99129.95
2023-01-10T14:45:02.038Z,99128.42
2023-01-10T14:47:35.574Z,99114.32
2023-01-10T14:50:06.308Z,99116.21
2023-01-10T14:52:33.493Z,99133.88
2023-01-10T14:55:11.205Z,99135.05
2023-01-10T14:57:38.166Z,99143.23
2023-01-10T15:00:14.102Z,99141.18
2023-01-10T15:02:46.076Z,99148.73
2023-01-10T15:05:17.720Z,99143.33
2023-01-10T15:07:44.633Z,99150.80
2023-01-10T15:10:21.181Z,99148.58
2023-01-10T15:12:48.184Z,99145.20
2023-01-10T15:15:19.815Z,99148.20
2023-01-10T15:17:46.798Z,99149.54
2023-01-10T15:20:17.904Z,99158.75
2023-01-10T15:22:48.179Z,99153.05
2023-01-10T15:25:21.340Z,99156.19
2023-01-10T15:27:50.633Z,99155.09
2023-01-10T15:30:21.864Z,99158.46
2023-01-10T15:33:11.297Z,99160.19
2023-01-10T15:35:38.350Z,99164.43
2023-01-10T15:38:13.017Z,99171.58
2023-01-10T15:40:39.980Z,99178.34
2023-01-10T15:43:46.030Z,99178.67
2023-01-10T15:46:23.725Z,99172.64
2023-01-10T15:49:01.898Z,99183.08
2023-01-10T15:51:38.111Z,99181.45
2023-01-10T15:54:20.464Z,99185.45
2023-01-10T15:56:51.295Z,99187.36
2023-01-10T15:59:29.144Z,99184.48
2023-01-10T16:01:58.314Z,99179.95
2023-01-10T16:04:25.475Z,99178.89
2023-01-10T16:06:55.232Z,99178.88
2023-01-10T16:09:23.167Z,99181.71
2023-01-10T16:12:10.164Z,99182.80
2023-01-10T16:14:38.065Z,99183.36
2023-01-10T16:17:05.624Z,99181.98
2023-01-10T16:19:32.865Z,99186.60
2023-01-10T16:21:59.884Z,99185.27
2023-01-10T16:24:31.233Z,99189.20
2023-01-10T16:27:00.532Z,99187.93
2023-01-10T16:29:27.477Z,99187.84
2023-01-10T16:31:54.441Z,99183.80
2023-01-10T16:34:21.496Z,99187.58
2023-01-10T16:36:48.564Z,99187.71
2023-01-10T16:39:20.553Z,99186.08
2023-01-10T16:42:05.938Z,99178.92
2023-01-10T16:44:33.220Z,99177.20
2023-01-10T16:47:00.681Z,99173.00
2023-01-10T16:49:27.604Z,99180.86
2023-01-10T16:51:56.568Z,99183.25
2023-01-10T16:54:26.922Z,99193.61
2023-01-10T16:56:53.982Z,99197.30
2023-01-10T16:59:20.988Z,99200.09
2023-01-10T17:01:55.252Z,99203.84
2023-01-10T17:04:24.535Z,99211.79
2023-01-10T17:06:51.578Z,99215.48
2023-01-10T17:09:38.859Z,99215.55
2023-01-10T17:12:07.431Z,99219.45
2023-01-10T17:14:35.297Z,99219.17
2023-01-10T17:17:05.017Z,99229.55
2023-01-10T17:19:31.987Z,99228.90
2023-01-10T17:22:00.394Z,99224.07
2023-01-10T17:24:29.750Z,99230.67
2023-01-10T17:26:56.929Z,99233.27
2023-01-10T17:29:23.856Z,99236.48
2023-01-10T17:31:50.949Z,99244.40
2023-01-10T17:34:18.100Z,99243.29
2023-01-10T17:36:45.021Z,99241.27
2023-01-10T17:39:11.932Z,99244.15
2023-01-10T17:41:38.943Z,99248.80
2023-01-10T17:44:05.873Z,99245.66
2023-01-10T17:46:32.783Z,99245.88
2023-01-10T17:48:59.615Z,99240.77
2023-01-10T17:51:28.920Z,99242.51
2023-01-10T17:53:55.847Z,99247.36
2023-01-10T17:56:23.155Z,99252.18
2023-01-10T17:58:51.836Z,99249.42
2023-01-10T18:01:22.869Z,99251.66
2023-01-10T18:03:51.757Z,99253.92
2023-01-10T18:06:25.611Z,99258.30
2023-01-10T18:08:53.511Z,99255.66
2023-01-10T18:11:21.504Z,99248.20
2023-01-10T18:13:48.631Z,99256.93
2023-01-10T18:16:15.619Z,99249.91
2023-01-10T18:18:42.984Z,99254.39
2023-01-10T18:21:14.639Z,99253.11
2023-01-10T18:23:42.158Z,99251.66
2023-01-10T18:26:10.264Z,99244.81
2023-01-10T18:28:47.756Z,99249.55
2023-01-10T18:31:16.486Z,99257.45
2023-01-10T18:33:44.672Z,99256.72
2023-01-10T18:36:17.809Z,99260.63
2023-01-10T18:38:46.274Z,99260.29
2023-01-10T18:41:16.557Z,99264.63
2023-01-10T18:43:43.559Z,99263.02
2023-01-10T18:46:13.714Z,99269.29
2023-01-10T18:48:40.782Z,99265.15
2023-01-10T18:51:10.111Z,99264.61
2023-01-10T18:53:37.068Z,99266.33
2023-01-10T18:56:07.443Z,99261.06
2023-01-10T18:58:38.949Z,99270.96
2023-01-10T19:01:13.721Z,99268.61
2023-01-10T19:03:43.700Z,99278.29
2023-01-10T19:06:11.760Z,99281.61
2023-01-10T19:08:42.591Z,99288.98
2023-01-10T19:11:15.128Z,99285.89
2023-01-10T19:13:46.047Z,99279.54
2023-01-10T19:16:22.723Z,99286.08
2023-01-10T19:18:52.788Z,99281.32
2023-01-10T19:21:21.410Z,99285.59
2023-01-10T19:23:52.614Z,99283.95
2023-01-10T19:26:20.498Z,99284.43
2023-01-10T19:28:47.480Z,99288.26
2023-01-10T19:31:16.218Z,99293.14
2023-01-10T19:33:44.200Z,99294.39
2023-01-10T19:36:14.775Z,99293.04
2023-01-10T19:38:41.682Z,99297.39
2023-01-10T19:41:08.646Z,99299.70
2023-01-10T19:43:35.650Z,99297.48
2023-01-10T19:46:09.747Z,99300.65
2023-01-10T19:48:38.387Z,99308.16
2023-01-10T19:51:10.524Z,99303.98
2023-01-10T19:53:38.254Z,99305.64
2023-01-10T19:56:07.578Z,99311.74
2023-01-10T19:58:35.971Z,99311.70
2023-01-10T20:01:10.456Z,99315.95
2023-01-10T20:03:38.788Z,99312.52
2023-01-10T20:06:06.188Z,99309.66
2023-01-10T20:08:33.297Z,99314.16
2023-01-10T20:11:06.872Z,99317.98
2023-01-10T20:13:35.526Z,99322.08
2023-01-10T20:16:05.786Z,99327.56
2023-01-10T20:18:32.774Z,99330.71
2023-01-10T20:21:06.629Z,99335.59
2023-01-10T20:23:34.931Z,99337.73
2023-01-10T20:26:06.657Z,99339.22
2023-01-10T20:28:33.869Z,99343.75
2023-01-10T20:31:00.875Z,99348.55
2023-01-10T20:33:28.188Z,99350.55
2023-01-10T20:36:04.068Z,99349.72
2023-01-10T20:38:31.503Z,99353.40
2023-01-10T20:40:59.509Z,99355.91
2023-01-10T20:43:26.509Z,99358.73
2023-01-10T20:45:53.559Z,99353.67
2023-01-10T20:48:20.606Z,99359.02
2023-01-10T20:50:47.609Z,99359.14
2023-01-10T20:53:14.962Z,99359.80
2023-01-10T20:55:41.949Z,99362.03
2023-01-10T20:58:08.909Z,99363.55
2023-01-10T21:00:35.923Z,99367.27
2023-01-10T21:03:02.964Z,99368.08
2023-01-10T21:05:29.993Z,99366.89
2023-01-10T21:07:56.903Z,99367.02
2023-01-10T21:10:24.000Z,99372.98
2023-01-10T21:12:51.388Z,99376.74
2023-01-10T21:15:18.364Z,99379.01
2023-01-10T21:17:45.295Z,99382.11
2023-01-10T21:20:13.721Z,99384.86
2023-01-10T21:22:40.608Z,99383.80
2023-01-10T21:25:07.872Z,99381.33
2023-01-10T21:27:34.817Z,99387.22
2023-01-10T21:30:01.878Z,99388.06
2023-01-10T21:32:28.845Z,99383.24
2023-01-10T21:34:55.762Z,99389.39
2023-01-10T21:37:22.792Z,99386.80
2023-01-10T21:39:49.799Z,99382.45
2023-01-10T21:42:34.866Z,99385.11
2023-01-10T21:45:02.095Z,99385.68
2023-01-10T21:47:29.104Z,99385.17
2023-01-10T21:49:56.929Z,99389.39
2023-01-10T21:52:23.890Z,99388.58
2023-01-10T21:54:50.943Z,99390.98
2023-01-10T21:57:22.042Z,99389.33
2023-01-10T21:59:50.153Z,99392.08
2023-01-10T22:02:18.957Z,99395.58
2023-01-10T22:04:53.577Z,99389.73
2023-01-10T22:07:21.481Z,99390.55
2023-01-10T22:09:52.056Z,99389.39
2023-01-10T22:12:19.893Z,99388.53
2023-01-10T22:14:47.044Z,99391.11
2023-01-10T22:17:14.282Z,99393.28
2023-01-10T22:19:41.579Z,99396.91
2023-01-10T22:22:08.752Z,99394.39
2023-01-10T22:24:35.824Z,99395.53
2023-01-10T22:27:02.858Z,99399.91
2023-01-10T22:29:29.883Z,99397.97
2023-01-10T22:31:56.934Z,99398.99
2023-01-10T22:34:25.937Z,99399.89
2023-01-10T22:36:55.508Z,99399.98
2023-01-10T22:39:24.959Z,99394.92
2023-01-10T22:41:54.079Z,99394.61
2023-01-10T22:44:25.947Z,99396.17
2023-01-10T22:46:55.347Z,99400.77
2023-01-10T22:49:24.508Z,99405.77
2023-01-10T22:51:53.973Z,99404.09
2023-01-10T22:54:25.962Z,99402.30
2023-01-10T22:56:55.970Z,99408.20
2023-01-10T22:59:25.313Z,99406.82
2023-01-10T23:01:54.945Z,99408.11
2023-01-10T23:04:24.288Z,99407.27
2023-01-10T23:06:54.056Z,99410.14
2023-01-10T23:09:23.952Z,99414.67
2023-01-10T23:11:53.328Z,99413.44
2023-01-10T23:14:23.392Z,99411.30
2023-01-10T23:16:53.076Z,99413.42
2023-01-10T23:19:22.328Z,99414.63
2023-01-10T23:21:52.036Z,99411.35
2023-01-10T23:24:21.438Z,99412.40
2023-01-10T23:26:51.146Z,99416.27
2023-01-10T23:29:21.023Z,99414.39
2023-01-10T23:31:50.776Z,99411.71
2023-01-10T23:34:21.038Z,99414.74
2023-01-10T23:44:56.997Z,99420.98
2023-01-10T23:47:27.613Z,99424.46
2023-01-10T23:49:54.882Z,99423.95
2023-01-10T23:52:21.805Z,99429.31
2023-01-10T23:54:48.808Z,99429.49
2023-01-10T23:57:16.115Z,99428.35
2023-01-10T23:59:43.001Z,99433.20
